Versailles, IN (47042)

4:23 PM EDT on May 05, 2015 (GMT -0400)
INDOT | | Change Station
CLOSE
Current Station
Personal Weather Station
Location: Versailles, IN
Elevation: 751 ft
Nearby Weather Stations

Elev 751 ft 39.06 °N, 85.23 °W | Updated 21 minutes ago

Partly Cloudy
Partly Cloudy
86 °F
Feels Like 84 °F
N
3
Wind Variable Wind from WSW
Gusts 7.0 mph

Today
High -- | Low -- °F
--% Chance of Precip.
Yesterday
High -- | Low -- °F
Precip. -- in
6:38 AM 8:37 PM
Full, 97% visible
Pressure 30.20 in
Visibility 8.0 miles
Clouds Scattered Clouds 7500 ft
Scattered Clouds 25000 ft
Heat Index 84 °F
Dew Point 52 °F
Humidity 31%
Rainfall in
Snow Depth Not available.
UV 6 out of 12
Pollen 10.50 out of 12
Air Quality Not available.
Flu Activity Local Activity
METAR KCVG 051952Z 22007G14KT 8SM SCT075 SCT250 27/11 A3022 RMK AO2 SLP225 T02670111

More Conditions Fewer Conditions

Pressure 30.20 in
Visibility 8.0 miles
Clouds Scattered Clouds 7500 ft
Scattered Clouds 25000 ft
Heat Index 84 °F
Dew Point 52 °F
Humidity 31%
Rainfall in
Snow Depth Not available.
UV 6 out of 12
Pollen 10.50 out of 12
Air Quality Not available.
Flu Activity Local Activity
METAR KCVG 051952Z 22007G14KT 8SM SCT075 SCT250 27/11 A3022 RMK AO2 SLP225 T02670111

More Conditions Fewer Conditions

10-Day Weather Forecast

Almanac

Astronomy

May. 05, 2015 Rise Set
Actual Time
Civil Twilight
Nautical Twilight
Astronomical Twilight
Moon
Length of Visible Light
Length of Day
Tomorrow will be .
, % of the Moon is Illuminated

Today's Extremes

State Highs State Lows

Community

WunderPhotos

Upload Photos

1,818,966 photos uploaded!

WunderBlogs® & News

Nearby

Air Quality

  Air Quality AQ Index Pollutant
Not available.

Snow Depth

Station Depth Elevation

Earthquake Activity

City Distance Mag. Time & Date
Minimum magnitude displayed is 2.5.

Coastal Water Temperatures

Place Temperature

Stations

Nearby Weather Stations

Station Location Temp. Windchill Dew Point Humidity Wind Precip. Elev Updated Type